createdAt,value
2023-03-24T00:01:57.431Z,14.37
2023-03-24T00:04:25.409Z,14.30
2023-03-24T00:06:54.185Z,14.33
2023-03-24T00:09:22.188Z,14.31
2023-03-24T00:11:50.569Z,14.28
2023-03-24T00:14:18.737Z,14.27
2023-03-24T00:16:47.307Z,14.24
2023-03-24T00:19:15.565Z,14.19
2023-03-24T00:21:44.569Z,14.14
2023-03-24T00:24:13.063Z,14.13
2023-03-24T00:26:42.045Z,14.10
2023-03-24T00:29:11.932Z,14.07
2023-03-24T00:31:40.526Z,14.06
2023-03-24T00:34:10.442Z,14.03
2023-03-24T00:36:38.403Z,14.03
2023-03-24T00:39:06.519Z,13.99
2023-03-24T00:41:36.270Z,13.94
2023-03-24T00:44:06.061Z,13.89
2023-03-24T00:46:34.150Z,13.82
2023-03-24T00:49:06.062Z,13.77
2023-03-24T00:51:40.596Z,13.68
2023-03-24T00:54:10.789Z,13.63
2023-03-24T00:56:40.824Z,13.54
2023-03-24T00:59:10.879Z,13.52
2023-03-24T01:01:42.071Z,13.47
2023-03-24T01:04:10.614Z,13.43
2023-03-24T01:06:40.049Z,13.37
2023-03-24T01:09:08.890Z,13.35
2023-03-24T01:11:40.310Z,13.32
2023-03-24T01:14:09.937Z,13.28
2023-03-24T01:16:38.112Z,13.23
2023-03-24T01:19:09.423Z,13.17
2023-03-24T01:21:40.661Z,13.16
2023-03-24T01:24:09.734Z,13.11
2023-03-24T01:26:37.980Z,13.13
2023-03-24T01:29:07.450Z,13.11
2023-03-24T01:31:36.078Z,13.07
2023-03-24T01:34:04.677Z,13.06
2023-03-24T01:36:32.718Z,13.00
2023-03-24T01:39:01.613Z,12.97
2023-03-24T01:41:36.624Z,12.93
2023-03-24T01:44:27.421Z,12.89
2023-03-24T01:46:57.115Z,12.88
2023-03-24T01:49:33.077Z,12.84
2023-03-24T01:52:03.652Z,12.79
2023-03-24T01:54:46.635Z,12.76
2023-03-24T01:57:23.927Z,12.70
2023-03-24T01:59:56.857Z,12.65
2023-03-24T02:02:26.696Z,12.63
2023-03-24T02:05:01.559Z,12.62
2023-03-24T02:07:56.150Z,12.56
2023-03-24T02:10:25.434Z,12.53
2023-03-24T02:12:53.321Z,12.52
2023-03-24T02:15:22.494Z,12.55
2023-03-24T02:18:09.323Z,12.52
2023-03-24T02:21:12.347Z,12.46
2023-03-24T02:24:02.529Z,12.38
2023-03-24T02:26:36.615Z,12.35
2023-03-24T02:29:16.621Z,12.26
2023-03-24T02:31:47.235Z,12.11
2023-03-24T02:34:26.403Z,12.02
2023-03-24T02:37:27.781Z,11.92
2023-03-24T02:40:12.548Z,11.86
2023-03-24T02:42:59.375Z,11.84
2023-03-24T02:46:04.662Z,11.81
2023-03-24T02:48:48.934Z,11.72
2023-03-24T02:51:29.266Z,11.70
2023-03-24T02:54:09.548Z,11.69
2023-03-24T02:56:40.680Z,11.62
2023-03-24T02:59:18.148Z,11.58
2023-03-24T03:02:02.390Z,11.54
2023-03-24T03:04:34.874Z,11.40
2023-03-24T03:07:10.596Z,11.27
2023-03-24T03:09:49.205Z,11.15
2023-03-24T03:12:20.505Z,11.09
2023-03-24T03:14:53.782Z,11.02
2023-03-24T03:17:30.955Z,10.94
2023-03-24T03:20:08.905Z,10.88
2023-03-24T03:22:45.292Z,10.79
2023-03-24T03:25:22.815Z,10.75
2023-03-24T03:27:53.482Z,10.72
2023-03-24T03:30:28.869Z,10.70
2023-03-24T03:33:04.104Z,10.70
2023-03-24T03:36:15.856Z,10.71
2023-03-24T03:38:59.828Z,10.63
2023-03-24T03:41:28.268Z,10.65
2023-03-24T03:43:56.491Z,10.74
2023-03-24T03:46:26.872Z,10.78
2023-03-24T03:48:55.090Z,10.81
2023-03-24T03:51:24.802Z,10.80
2023-03-24T03:54:02.562Z,10.77
2023-03-24T03:56:33.042Z,10.68
2023-03-24T03:59:01.518Z,10.59
2023-03-24T04:01:34.294Z,10.54
2023-03-24T04:04:20.642Z,10.50
2023-03-24T04:07:19.873Z,10.38
2023-03-24T04:10:26.097Z,10.31
2023-03-24T04:13:15.781Z,10.27
2023-03-24T04:15:56.036Z,10.25
2023-03-24T04:18:55.415Z,10.21
2023-03-24T04:21:54.156Z,10.14
2023-03-24T04:24:37.380Z,10.10
2023-03-24T04:27:27.257Z,10.11
2023-03-24T04:30:16.508Z,10.08
2023-03-24T04:33:03.873Z,10.05
2023-03-24T04:35:44.072Z,10.06
2023-03-24T04:38:33.408Z,10.09
2023-03-24T04:41:04.547Z,10.06
2023-03-24T04:43:36.702Z,10.10
2023-03-24T04:46:35.905Z,10.10
2023-03-24T04:49:05.141Z,10.01
2023-03-24T04:51:33.106Z,10.04
2023-03-24T04:54:01.134Z,10.03
2023-03-24T04:56:43.930Z,10.02
2023-03-24T04:59:13.075Z,9.93
2023-03-24T05:01:41.991Z,9.97
2023-03-24T05:04:11.094Z,10.02
2023-03-24T05:06:38.935Z,10.09
2023-03-24T05:09:06.953Z,10.14
2023-03-24T05:11:34.871Z,10.20
2023-03-24T05:14:02.844Z,10.26
2023-03-24T05:16:30.915Z,10.40
2023-03-24T05:18:59.132Z,10.54
2023-03-24T05:21:27.133Z,10.58
2023-03-24T05:23:55.157Z,10.59
2023-03-24T05:26:23.080Z,10.55
2023-03-24T05:28:51.387Z,10.65
2023-03-24T05:31:19.963Z,10.72
2023-03-24T05:33:48.931Z,10.70
2023-03-24T05:36:18.084Z,10.78
2023-03-24T05:38:46.344Z,10.81
2023-03-24T05:41:14.255Z,10.82
2023-03-24T05:43:42.098Z,10.87
2023-03-24T05:46:10.034Z,10.87
2023-03-24T05:48:38.196Z,10.77
2023-03-24T05:51:07.322Z,10.86
2023-03-24T05:53:35.341Z,10.96
2023-03-24T05:56:03.466Z,11.13
2023-03-24T05:58:34.718Z,11.22
2023-03-24T06:01:10.364Z,11.23
2023-03-24T06:03:39.740Z,11.19
2023-03-24T06:06:11.469Z,11.20
2023-03-24T06:08:39.271Z,11.24
2023-03-24T06:11:07.408Z,11.33
2023-03-24T06:13:36.560Z,11.45
2023-03-24T06:16:04.767Z,11.45
2023-03-24T06:18:33.680Z,11.41
2023-03-24T06:21:04.803Z,11.44
2023-03-24T06:23:34.008Z,11.47
2023-03-24T06:26:10.236Z,11.43
2023-03-24T06:28:42.221Z,11.67
2023-03-24T06:31:20.648Z,11.77
2023-03-24T06:33:49.033Z,11.88
2023-03-24T06:36:17.698Z,11.89
2023-03-24T06:38:46.160Z,11.86
2023-03-24T06:41:13.914Z,11.82
2023-03-24T06:43:41.660Z,11.89
2023-03-24T06:52:43.264Z,12.26
2023-03-24T06:55:11.396Z,12.14
2023-03-24T06:57:39.331Z,12.29
2023-03-24T07:00:13.667Z,12.50
2023-03-24T07:02:42.938Z,12.55
2023-03-24T07:05:12.439Z,12.58
2023-03-24T07:10:14.309Z,12.57
2023-03-24T07:12:43.141Z,12.69
2023-03-24T07:15:12.247Z,12.73
2023-03-24T07:17:43.200Z,12.78
2023-03-24T07:20:11.283Z,12.90
2023-03-24T07:22:39.402Z,12.91
2023-03-24T07:25:09.106Z,13.03
2023-03-24T07:27:39.401Z,13.09
2023-03-24T07:30:09.480Z,13.07
2023-03-24T07:32:39.468Z,13.16
2023-03-24T07:35:10.932Z,13.16
2023-03-24T07:37:39.864Z,13.25
2023-03-24T07:40:13.362Z,13.29
2023-03-24T07:42:43.111Z,13.38
2023-03-24T07:45:12.475Z,13.46
2023-03-24T07:47:47.983Z,13.51
2023-03-24T07:50:19.227Z,13.54
2023-03-24T07:52:48.796Z,13.46
2023-03-24T08:02:38.865Z,13.40
2023-03-24T08:05:06.059Z,13.30
2023-03-24T08:07:34.816Z,13.28
2023-03-24T08:10:01.436Z,13.31
2023-03-24T08:12:28.106Z,13.31
2023-03-24T08:14:54.640Z,13.30
2023-03-24T08:17:21.386Z,13.19
2023-03-24T08:19:58.888Z,13.13
2023-03-24T08:22:28.008Z,13.09
2023-03-24T08:24:57.973Z,13.04
2023-03-24T08:27:27.477Z,13.02
2023-03-24T08:29:53.993Z,13.05
2023-03-24T08:32:20.879Z,13.02
2023-03-24T08:34:47.302Z,13.01
2023-03-24T08:37:17.684Z,13.14
2023-03-24T08:39:46.311Z,13.24
2023-03-24T08:42:12.859Z,13.29
2023-03-24T08:44:42.539Z,13.42
2023-03-24T08:47:09.168Z,13.40
2023-03-24T08:49:36.257Z,13.38
2023-03-24T08:52:03.283Z,13.36
2023-03-24T08:54:30.013Z,13.41
2023-03-24T08:56:56.758Z,13.46
2023-03-24T08:59:23.265Z,13.49
2023-03-24T09:01:49.848Z,13.47
2023-03-24T09:04:16.614Z,13.46
2023-03-24T09:06:43.423Z,13.48
2023-03-24T09:09:10.094Z,13.51
2023-03-24T09:14:59.352Z,13.77
2023-03-24T09:17:27.446Z,13.83
2023-03-24T09:19:55.443Z,14.08
2023-03-24T09:22:23.571Z,14.36
2023-03-24T09:24:51.513Z,14.66
2023-03-24T09:27:22.041Z,15.03
2023-03-24T09:29:50.246Z,15.57
2023-03-24T09:32:18.543Z,16.30
2023-03-24T09:34:50.298Z,16.65
2023-03-24T09:37:19.628Z,16.63
2023-03-24T09:39:47.891Z,16.65
2023-03-24T09:42:23.943Z,16.91
2023-03-24T09:45:00.023Z,17.06
2023-03-24T09:54:09.109Z,17.83
2023-03-24T09:56:39.981Z,17.38
2023-03-24T09:59:18.888Z,17.09
2023-03-24T10:01:57.057Z,16.78
2023-03-24T10:04:27.984Z,16.62
2023-03-24T10:11:26.264Z,16.56
2023-03-24T10:14:23.891Z,16.76
2023-03-24T10:17:19.999Z,16.56
2023-03-24T10:20:00.287Z,16.58
2023-03-24T10:22:33.644Z,16.54
2023-03-24T10:25:23.196Z,16.61
2023-03-24T10:28:06.101Z,16.60
2023-03-24T10:30:46.895Z,16.74
2023-03-24T10:33:21.757Z,16.64
2023-03-24T10:36:02.922Z,16.54
2023-03-24T10:39:03.957Z,16.56
2023-03-24T10:41:44.198Z,16.57
2023-03-24T10:44:15.623Z,16.77
2023-03-24T10:46:52.636Z,16.79
2023-03-24T10:49:24.956Z,16.77
2023-03-24T10:52:02.213Z,16.75
2023-03-24T10:54:32.376Z,16.87
2023-03-24T10:57:07.440Z,16.89
2023-03-24T10:59:57.124Z,16.97
2023-03-24T11:02:27.095Z,16.97
2023-03-24T11:05:29.137Z,16.94
2023-03-24T11:08:15.117Z,16.97
2023-03-24T11:10:45.822Z,16.91
2023-03-24T11:13:21.359Z,16.91
2023-03-24T11:16:19.452Z,16.98
2023-03-24T11:19:00.467Z,16.94
2023-03-24T11:21:38.849Z,16.94
2023-03-24T11:24:13.145Z,17.02
2023-03-24T11:26:55.464Z,17.04
2023-03-24T11:29:51.893Z,17.08
2023-03-24T11:32:27.250Z,17.05
2023-03-24T11:35:18.082Z,17.12
2023-03-24T11:37:51.605Z,17.17
2023-03-24T11:40:28.533Z,17.17
2023-03-24T11:43:04.846Z,17.31
2023-03-24T11:45:44.775Z,17.30
2023-03-24T11:48:41.804Z,17.31
2023-03-24T11:51:12.934Z,17.38
2023-03-24T11:53:41.809Z,17.48
2023-03-24T11:56:42.444Z,17.48
2023-03-24T11:59:32.049Z,17.43
2023-03-24T12:02:40.115Z,17.48
2023-03-24T12:06:07.957Z,17.59
2023-03-24T12:08:49.122Z,17.60
2023-03-24T12:11:25.551Z,17.65
2023-03-24T12:15:33.193Z,17.69
2023-03-24T12:18:26.475Z,17.77
2023-03-24T12:21:05.244Z,17.87
2023-03-24T12:24:06.271Z,18.11
2023-03-24T12:26:35.753Z,18.33
2023-03-24T12:29:04.203Z,18.63
2023-03-24T12:31:58.489Z,18.92
2023-03-24T12:34:48.855Z,19.53
2023-03-24T12:38:00.200Z,20.02
2023-03-24T12:41:03.843Z,20.89
2023-03-24T12:44:00.084Z,21.03
2023-03-24T12:47:03.679Z,20.80
2023-03-24T12:49:50.889Z,21.37
2023-03-24T12:53:33.498Z,22.56
2023-03-24T12:56:18.691Z,22.37
2023-03-24T12:59:13.394Z,21.77
2023-03-24T13:01:55.119Z,21.33
2023-03-24T13:04:31.517Z,21.18
2023-03-24T13:07:54.922Z,21.14
2023-03-24T13:10:40.898Z,21.00
2023-03-24T13:13:25.204Z,20.83
2023-03-24T13:16:01.543Z,20.74
2023-03-24T13:18:40.708Z,20.61
2023-03-24T13:21:20.486Z,20.53
2023-03-24T13:24:08.744Z,21.11
2023-03-24T13:26:54.183Z,20.88
2023-03-24T13:29:48.661Z,21.32
2023-03-24T13:32:20.290Z,21.57
2023-03-24T13:35:00.853Z,21.56
2023-03-24T13:37:51.906Z,21.37
2023-03-24T13:40:27.960Z,21.37
2023-03-24T13:42:59.487Z,21.48
2023-03-24T13:45:40.169Z,21.29
2023-03-24T13:48:11.590Z,21.14
2023-03-24T13:50:52.123Z,21.42
2023-03-24T13:53:32.664Z,21.28
2023-03-24T13:56:06.381Z,20.72
2023-03-24T13:59:13.295Z,20.60
2023-03-24T14:01:44.308Z,20.71
2023-03-24T14:04:26.051Z,20.85
2023-03-24T14:07:42.866Z,20.84
2023-03-24T14:10:14.011Z,20.61
2023-03-24T14:13:14.925Z,20.64
2023-03-24T14:15:53.808Z,20.59
2023-03-24T14:23:03.274Z,20.80
2023-03-24T14:26:50.708Z,20.62
2023-03-24T14:35:50.905Z,20.82
2023-03-24T14:39:28.375Z,20.81
2023-03-24T14:42:02.574Z,20.69
2023-03-24T14:44:54.900Z,20.86
2023-03-24T14:47:42.855Z,20.81
2023-03-24T14:50:23.024Z,20.88
2023-03-24T14:53:06.472Z,20.73
2023-03-24T14:55:36.810Z,20.69
2023-03-24T14:58:22.923Z,20.64
2023-03-24T15:03:41.742Z,20.48
2023-03-24T15:06:27.999Z,20.49
2023-03-24T15:08:58.968Z,20.46
2023-03-24T15:11:35.665Z,20.36
2023-03-24T15:15:23.878Z,20.35
2023-03-24T15:27:26.676Z,19.92
2023-03-24T15:30:06.061Z,19.90
2023-03-24T15:32:40.009Z,19.89
2023-03-24T15:35:25.977Z,19.83
2023-03-24T15:37:59.529Z,19.80
2023-03-24T15:40:35.066Z,19.77
2023-03-24T15:43:19.736Z,19.75
2023-03-24T15:46:12.279Z,19.75
2023-03-24T15:49:35.064Z,19.76
2023-03-24T15:52:37.530Z,19.70
2023-03-24T15:55:25.420Z,19.71
2023-03-24T15:57:58.381Z,19.74
2023-03-24T16:00:36.688Z,19.74
2023-03-24T16:05:35.286Z,19.71
2023-03-24T16:09:12.021Z,19.47
2023-03-24T16:11:44.158Z,19.32
2023-03-24T16:14:29.943Z,19.32
2023-03-24T16:17:11.065Z,19.31
2023-03-24T16:19:42.001Z,19.29
2023-03-24T16:22:15.714Z,19.29
2023-03-24T16:24:43.844Z,19.21
2023-03-24T16:27:13.251Z,19.18
2023-03-24T16:29:42.421Z,19.07
2023-03-24T16:32:14.680Z,19.07
2023-03-24T16:34:44.499Z,19.01
2023-03-24T16:37:14.747Z,19.04
2023-03-24T16:39:50.532Z,18.94
2023-03-24T16:42:21.001Z,18.97
2023-03-24T16:44:49.248Z,18.88
2023-03-24T16:47:17.337Z,18.81
2023-03-24T16:49:46.857Z,18.77
2023-03-24T16:52:16.421Z,18.75
2023-03-24T16:56:02.054Z,18.48
2023-03-24T16:59:38.802Z,18.22
2023-03-24T17:03:31.385Z,17.97
2023-03-24T17:05:58.266Z,17.86
2023-03-24T17:08:27.596Z,17.78
2023-03-24T17:10:57.584Z,17.63
2023-03-24T17:13:26.076Z,17.50
2023-03-24T17:15:55.488Z,17.37
2023-03-24T17:18:22.618Z,17.20
2023-03-24T17:20:49.455Z,16.94
2023-03-24T17:23:18.130Z,16.67
2023-03-24T17:25:50.911Z,16.44
2023-03-24T17:28:36.659Z,16.20
2023-03-24T17:31:09.743Z,16.02
2023-03-24T17:33:36.788Z,15.77
2023-03-24T17:36:03.846Z,15.57
2023-03-24T17:38:30.678Z,15.35
2023-03-24T17:41:05.489Z,15.28
2023-03-24T17:43:34.900Z,15.19
2023-03-24T17:46:02.667Z,15.07
2023-03-24T17:48:29.667Z,14.98
2023-03-24T17:50:56.663Z,14.95
2023-03-24T17:53:27.443Z,14.83
2023-03-24T17:56:07.118Z,14.74
2023-03-24T17:58:35.272Z,14.64
2023-03-24T18:01:08.902Z,14.64
2023-03-24T18:03:37.249Z,14.55
2023-03-24T18:06:12.071Z,14.48
2023-03-24T18:08:39.175Z,14.46
2023-03-24T18:11:08.380Z,14.43
2023-03-24T18:13:38.625Z,14.37
2023-03-24T18:16:19.829Z,14.33
2023-03-24T18:18:52.307Z,14.26
2023-03-24T18:21:24.844Z,14.22
2023-03-24T18:23:51.316Z,14.25
2023-03-24T18:26:22.402Z,14.25
2023-03-24T18:28:54.411Z,14.21
2023-03-24T18:31:22.751Z,14.22
2023-03-24T18:33:53.994Z,14.18
2023-03-24T18:36:25.818Z,14.11
2023-03-24T18:39:06.513Z,14.05
2023-03-24T18:41:37.410Z,14.02
2023-03-24T18:44:07.353Z,14.03
2023-03-24T18:46:34.492Z,14.00
2023-03-24T18:49:01.513Z,13.99
2023-03-24T18:51:28.844Z,13.96
2023-03-24T18:54:02.291Z,14.01
2023-03-24T18:56:35.239Z,14.05
2023-03-24T18:59:04.204Z,14.08
2023-03-24T19:01:35.539Z,14.10
2023-03-24T19:04:05.578Z,14.13
2023-03-24T19:06:36.776Z,14.19
2023-03-24T19:09:05.058Z,14.25
2023-03-24T19:11:34.206Z,14.27
2023-03-24T19:15:19.397Z,14.21
2023-03-24T19:17:50.661Z,14.11
2023-03-24T19:20:21.571Z,14.17
2023-03-24T19:22:49.833Z,14.17
2023-03-24T19:25:19.879Z,14.17
2023-03-24T19:27:48.648Z,14.23
2023-03-24T19:30:21.049Z,14.28
2023-03-24T19:32:51.447Z,14.28
2023-03-24T19:35:19.879Z,14.24
2023-03-24T19:37:48.937Z,14.32
2023-03-24T19:40:23.500Z,14.29
2023-03-24T19:42:51.589Z,14.31
2023-03-24T19:45:23.218Z,14.28
2023-03-24T19:47:59.064Z,14.31
2023-03-24T19:50:27.900Z,14.28
2023-03-24T19:54:41.537Z,14.29
2023-03-24T19:57:11.213Z,14.16
2023-03-24T19:59:45.911Z,14.24
2023-03-24T20:02:21.383Z,14.31
2023-03-24T20:05:03.184Z,14.28
2023-03-24T20:07:33.373Z,14.30
2023-03-24T20:11:17.412Z,14.33
2023-03-24T20:14:18.889Z,14.29
2023-03-24T20:16:47.669Z,14.18
2023-03-24T20:19:16.136Z,14.23
2023-03-24T20:21:46.237Z,14.25
2023-03-24T20:24:26.868Z,14.31
2023-03-24T20:26:58.916Z,14.33
2023-03-24T20:29:29.499Z,14.33
2023-03-24T20:32:21.360Z,14.33
2023-03-24T20:35:05.979Z,14.30
2023-03-24T20:37:41.773Z,14.32
2023-03-24T20:40:18.852Z,14.32
2023-03-24T20:43:03.905Z,14.25
2023-03-24T20:45:34.884Z,14.30
2023-03-24T20:48:11.828Z,14.31
2023-03-24T20:50:39.911Z,14.33
2023-03-24T20:53:11.760Z,14.31
2023-03-24T20:55:41.783Z,14.28
2023-03-24T20:58:10.772Z,14.33
2023-03-24T21:00:43.440Z,14.34
2023-03-24T21:03:12.803Z,14.31
2023-03-24T21:05:51.710Z,14.28
2023-03-24T21:08:20.056Z,14.24
2023-03-24T21:10:49.412Z,14.21
2023-03-24T21:13:21.699Z,14.18
2023-03-24T21:15:54.888Z,14.12
2023-03-24T21:18:24.374Z,14.10
2023-03-24T21:20:58.488Z,14.12
2023-03-24T21:23:34.853Z,14.11
2023-03-24T21:26:04.593Z,14.11
2023-03-24T21:28:47.298Z,14.16
2023-03-24T21:31:24.877Z,14.14
2023-03-24T21:33:56.992Z,14.06
2023-03-24T21:36:32.967Z,14.04
2023-03-24T21:39:08.561Z,13.96
2023-03-24T21:41:39.072Z,13.99
2023-03-24T21:44:09.653Z,13.94
2023-03-24T21:46:37.722Z,13.87
2023-03-24T21:49:06.591Z,13.80
2023-03-24T21:51:41.085Z,13.67
2023-03-24T21:54:13.995Z,13.50
2023-03-24T21:56:42.139Z,13.28
2023-03-24T21:59:14.154Z,13.13
2023-03-24T22:01:43.451Z,13.06
2023-03-24T22:04:11.683Z,12.93
2023-03-24T22:06:39.835Z,12.90
2023-03-24T22:09:10.299Z,12.87
2023-03-24T22:11:42.982Z,12.85
2023-03-24T22:14:14.267Z,12.84
2023-03-24T22:16:42.579Z,12.88
2023-03-24T22:19:12.534Z,12.92
2023-03-24T22:21:43.567Z,12.95
2023-03-24T22:24:11.490Z,12.95
2023-03-24T22:26:39.678Z,12.91
2023-03-24T22:29:12.203Z,12.89
2023-03-24T22:31:43.019Z,12.79
2023-03-24T22:34:13.974Z,12.73
2023-03-24T22:36:45.131Z,12.72
2023-03-24T22:39:13.580Z,12.70
2023-03-24T22:41:43.927Z,12.63
2023-03-24T22:44:13.817Z,12.62
2023-03-24T22:46:43.196Z,12.60
2023-03-24T22:49:13.659Z,12.59
2023-03-24T22:51:41.974Z,12.60
2023-03-24T22:54:11.310Z,12.56
2023-03-24T22:56:53.410Z,12.55
2023-03-24T22:59:21.466Z,12.56
2023-03-24T23:01:56.170Z,12.51
2023-03-24T23:04:34.229Z,12.47
2023-03-24T23:07:02.470Z,12.48
2023-03-24T23:09:30.327Z,12.50
2023-03-24T23:11:58.408Z,12.52
2023-03-24T23:14:26.560Z,12.50
2023-03-24T23:16:56.395Z,12.50
2023-03-24T23:19:24.677Z,12.52
2023-03-24T23:21:52.520Z,12.49
2023-03-24T23:24:20.668Z,12.46
2023-03-24T23:26:48.757Z,12.45
2023-03-24T23:29:17.556Z,12.43
2023-03-24T23:31:45.530Z,12.39
2023-03-24T23:34:13.449Z,12.40
2023-03-24T23:36:45.054Z,12.38
2023-03-24T23:39:12.945Z,12.33
2023-03-24T23:41:40.891Z,12.30
2023-03-24T23:44:08.941Z,12.21
2023-03-24T23:46:36.881Z,12.14
2023-03-24T23:49:08.376Z,12.10
2023-03-24T23:51:36.194Z,12.10
2023-03-24T23:54:04.325Z,12.05
2023-03-24T23:56:37.212Z,12.06
2023-03-24T23:59:07.423Z,12.01
